KD9AQS Weather Reports


Display with metric or nautical units.
time (UTC)temp
F
wind
direction
speed
MPH
gust
MPH
rain 1hr
in
rain 24hr
in
rain mn
in
humidity
%
barometer
mb
20260906104600 72 130 0.0 0.0 0.00 0.00 0.00 95 1011.0
20260906103058 72 130 0.0 1.0 0.00 0.00 0.00 94 1011.0
20260906101602 72 130 0.0 0.0 0.00 0.00 0.00 94 1010.9
20260906100057 73 130 0.0 2.0 0.00 0.00 0.00 94 1010.8
20260906094556 73 130 0.0 3.0 0.00 0.00 0.00 94 1010.8
20260906093056 73 130 0.0 2.0 0.00 0.00 0.00 94 1010.9
20260906091556 73 136 1.0 4.0 0.00 0.00 0.00 94 1010.7
20260906090054 73 190 0.0 3.0 0.00 0.00 0.00 95 1010.9
20260906084554 73 194 0.0 3.0 0.00 0.00 0.00 95 1010.8
20260906083054 73 194 0.0 2.0 0.00 0.00 0.00 95 1011.0
20260906081556 73 195 1.0 3.0 0.00 0.00 0.00 95 1011.1
20260906080052 73 252 1.0 3.0 0.00 0.00 0.00 95 1011.1
20260906074553 72 256 3.0 5.0 0.00 0.00 0.00 96 1011.1
20260906073050 73 138 0.0 1.0 0.00 0.00 0.00 96 1010.8
20260906071549 73 138 0.0 1.0 0.00 0.00 0.00 96 1010.6
20260906070049 73 138 0.0 3.0 0.00 0.00 0.00 96 1010.5
20260906064547 73 138 1.0 2.0 0.00 0.00 0.00 95 1010.5
20260906063046 73 138 0.0 3.0 0.00 0.00 0.00 96 1010.6
20260906061546 73 136 0.0 2.0 0.00 0.00 0.00 96 1010.5
20260906060103 73 132 0.0 0.0 0.00 0.00 0.00 96 1010.6
20260906054543 73 132 0.0 0.0 0.00 0.00 0.00 95 1010.6
20260906053041 74 132 0.0 0.0 0.00 0.00 0.00 95 1010.7
20260906051538 74 132 0.0 0.0 0.00 0.00 0.00 96 1011.3
20260906050039 74 132 0.0 0.0 0.00 0.00 0.00 96 1011.3
20260906044535 74 132 0.0 0.0 0.00 0.00 0.00 95 1011.4
20260906043039 74 132 0.0 0.0 0.00 0.00 0.00 95 1011.5
20260906041536 74 132 0.0 0.0 0.00 0.00 0.00 94 1011.7
20260906040035 74 132 0.0 0.0 0.00 0.00 0.00 93 1011.8
20260906034534 75 132 0.0 0.0 0.00 0.00 0.00 93 1011.5
20260906033029 75 132 0.0 0.0 0.00 0.00 0.00 92 1011.5
20260906031633 76 132 0.0 1.0 0.00 0.00 0.00 90 1011.4
20260906030027 76 132 1.0 4.0 0.00 0.00 0.00 89 1011.2
20260906024528 76 128 0.0 6.0 0.00 0.00 0.00 89 1011.2
20260906023025 76 115 0.0 2.0 0.00 0.00 0.00 91 1010.9
20260906021525 76 115 0.0 3.0 0.00 0.00 0.00 90 1011.0
20260906020026 77 115 0.0 1.0 0.00 0.00 0.00 89 1011.0
20260906014526 77 115 0.0 4.0 0.00 0.00 0.00 89 1010.8
20260906013024 77 126 0.0 1.0 0.00 0.00 0.00 89 1010.7
20260906011524 78 126 0.0 1.0 0.00 0.00 0.00 88 1010.8
20260906010023 78 126 0.0 1.0 0.00 0.00 0.00 86 1010.7
20260906004523 79 126 1.0 3.0 0.00 0.00 0.00 85 1010.8
20260906003023 79 126 0.0 2.0 0.00 0.00 0.00 84 1010.7
20260906001522 80 126 1.0 3.0 0.00 0.00 0.00 84 1010.7
20260906000022 81 128 0.0 3.0 0.00 0.00 0.00 80 1010.8
20260905234521 83 128 1.0 3.0 0.00 0.00 0.00 77 1010.6
20260905233021 84 128 0.0 2.0 0.00 0.00 0.00 73 1010.5
20260905231532 84 128 0.0 2.0 0.00 0.00 0.00 73 1010.6
20260905230019 84 128 1.0 2.0 0.00 0.00 0.00 74 1010.2
20260905224522 83 128 0.0 2.0 0.00 0.00 0.00 76 1010.4
20260905223016 84 128 0.0 2.0 0.00 0.00 0.00 75 1010.6
20260905221633 83 128 1.0 3.0 0.00 0.00 0.00 77 1010.6
20260905220015 82 132 0.0 3.0 0.00 0.00 0.00 78 1010.8
20260905214513 81 138 0.0 3.0 0.00 0.00 0.00 80 1010.6
20260905213011 80 139 0.0 2.0 0.00 0.00 0.00 80 1010.7
20260905211511 81 139 0.0 0.0 0.00 0.00 0.00 79 1011.0
20260905210011 81 139 0.0 4.0 0.00 0.00 0.00 79 1010.8
20260905204509 81 262 0.0 2.0 0.00 0.00 0.00 75 1010.9
20260905203009 80 92 0.0 0.0 0.00 0.00 0.00 75 1011.3
20260905201507 80 92 0.0 1.0 0.00 0.00 0.00 74 1011.3
20260905200007 80 92 2.0 6.0 0.00 0.00 0.00 78 1011.3
20260905194506 80 112 2.0 6.0 0.00 0.00 0.00 78 1011.5
20260905193005 80 107 1.0 7.0 0.00 0.00 0.00 79 1011.7
20260905191506 81 75 4.0 6.0 0.00 0.00 0.00 77 1011.7
20260905190012 82 21 1.0 6.0 0.00 0.00 0.00 74 1011.7
20260905184506 86 83 4.0 10.0 0.00 0.00 0.00 69 1011.8
20260905183007 90 60 2.0 12.0 0.00 0.00 0.00 62 1011.5
20260905181505 95 355 4.0 10.0 0.00 0.00 0.00 56 1011.3
20260905180113 94 146 2.0 6.0 0.00 0.00 0.00 54 1011.3
20260905174557 94 80 3.0 8.0 0.00 0.00 0.00 57 1011.5
20260905173112 93 31 1.0 6.0 0.00 0.00 0.00 58 1011.8
20260905171555 92 89 2.0 7.0 0.00 0.00 0.00 58 1011.8
20260905170050 92 124 1.0 3.0 0.00 0.00 0.00 63 1012.1
20260905164545 91 128 1.0 4.0 0.00 0.00 0.00 67 1012.4
20260905163042 90 148 1.0 5.0 0.00 0.00 0.00 65 1012.4
20260905161541 89 165 1.0 4.0 0.00 0.00 0.00 64 1012.7
20260905160051 88 166 2.0 6.0 0.00 0.00 0.00 67 1012.7
20260905154535 87 257 1.0 4.0 0.00 0.00 0.00 71 1012.6
20260905153035 86 161 2.0 5.0 0.00 0.00 0.00 72 1012.8
20260905151528 85 194 1.0 6.0 0.00 0.00 0.00 73 1013.0
20260905150025 84 156 2.0 7.0 0.00 0.00 0.00 74 1013.1
20260905144527 83 168 1.0 5.0 0.00 0.00 0.00 76 1013.2
20260905143020 83 170 2.0 4.0 0.00 0.00 0.00 75 1013.2
20260905141519 83 142 2.0 5.0 0.00 0.00 0.00 75 1013.3
20260905140020 82 108 0.0 2.0 0.00 0.00 0.00 78 1013.5
20260905134511 80 108 0.0 0.0 0.00 0.00 0.00 81 1013.5
20260905133011 79 109 0.0 0.0 0.00 0.00 0.00 84 1013.7
20260905131509 78 109 0.0 2.0 0.00 0.00 0.00 85 1013.6
20260905130006 77 107 0.0 2.0 0.00 0.00 0.00 86 1013.7
20260905124506 76 107 0.0 1.0 0.00 0.00 0.00 89 1013.8
20260905123005 75 107 1.0 3.0 0.00 0.00 0.00 92 1013.9
20260905121503 74 107 0.0 2.0 0.00 0.00 0.00 93 1013.4
20260905120001 74 107 0.0 1.0 0.00 0.00 0.00 94 1013.3
20260905114610 73 107 0.0 2.0 0.00 0.00 0.00 94 1013.1
20260905113100 73 107 0.0 2.0 0.00 0.00 0.00 95 1012.9
20260905111652 73 107 0.0 1.0 0.00 0.00 0.00 94 1012.9
20260905110057 73 107 0.0 0.0 0.00 0.00 0.00 94 1012.5